Chestnutburg, Kentucky
Current Conditions -  °F | °C
As of 6:53 PM on Wednesday 28 Jan 2015 (Local Time) from KLOZ Reporting Station
Clear Clear  
Wind Chill: 34°   Ceiling: Unl
Heat Index: 34°   Visibility: 10mi
Dew Point: 18°   Wind: 0mph
Humidity: 52%   Direction: NA
Pressure: 30.24"   Gusts: NA
Location:  37.1101°N, 83.7537°W
Report Text: KLOZ 282353Z AUTO 00000KT 10SM CLR 01/M08 A3024 RMK AO2 SLP251 T00111078 10044 20006 55008
Loading
Personal Weather Stations






























Interactive Weather Map New forecast layout! Learn more

10-Day Weather Forecast

Advertisements
Track Severe Weather on mobile